Time;durP1;ratioP1;P1;durP2;ratioP2;P2;SDS_P1;SDS_P2;PMS_P1;PMS_P2;Temp;Humidity;BMP_temperature;BMP_pressure;BME280_temperature;BME280_humidity;BME280_pressure;Samples;Min_cycle;Max_cycle;Signal;HPM_P1;HPM_P2
2024/04/22 00:00:09;;;;;;;7.77;5.60;;;4.70;99.90;;;;;;5450542;26;20317;-68
2024/04/22 00:02:39;;;;;;;5.90;5.40;;;4.80;99.90;;;;;;5457599;25;20328;-67
2024/04/22 00:05:10;;;;;;;6.77;6.07;;;4.80;99.90;;;;;;5455370;26;20299;-67
2024/04/22 00:07:40;;;;;;;5.93;5.40;;;4.90;99.90;;;;;;5447403;26;20237;-67
2024/04/22 00:10:08;;;;;;;7.20;6.20;;;4.90;99.90;;;;;;5457619;26;20237;-68
2024/04/22 00:12:40;;;;;;;6.67;6.00;;;4.90;99.90;;;;;;5456842;26;20248;-67
2024/04/22 00:15:11;;;;;;;6.37;5.83;;;4.90;99.90;;;;;;5445800;26;20264;-67
2024/04/22 00:17:44;;;;;;;6.23;5.63;;;4.80;99.90;;;;;;5451075;25;20257;-67
2024/04/22 00:20:11;;;;;;;7.00;6.10;;;4.80;99.90;;;;;;5447836;25;20308;-67
2024/04/22 00:22:41;;;;;;;7.40;6.30;;;4.80;99.90;;;;;;5448801;26;20280;-68
2024/04/22 00:25:09;;;;;;;8.67;6.53;;;4.70;99.90;;;;;;5448317;26;20248;-67
2024/04/22 00:27:42;;;;;;;6.63;6.03;;;4.70;99.90;;;;;;5445786;26;20252;-67
2024/04/22 00:30:12;;;;;;;7.70;6.33;;;4.70;99.90;;;;;;5449301;26;20317;-67
2024/04/22 00:32:39;;;;;;;8.23;6.30;;;4.60;99.90;;;;;;5454815;26;20312;-67
2024/04/22 00:35:10;;;;;;;7.83;6.77;;;4.60;99.90;;;;;;5451168;26;20350;-67
2024/04/22 00:37:38;;;;;;;7.23;6.40;;;4.60;99.90;;;;;;5459391;26;20860;-68
2024/04/22 00:40:09;;;;;;;7.27;6.57;;;4.50;99.90;;;;;;5450137;26;20261;-68
2024/04/22 00:42:43;;;;;;;7.97;6.50;;;4.50;99.90;;;;;;5451038;26;20335;-67
2024/04/22 00:45:13;;;;;;;7.77;6.50;;;4.40;99.90;;;;;;5453736;26;20253;-67
2024/04/22 00:47:41;;;;;;;7.60;6.80;;;4.40;99.90;;;;;;5456289;25;20256;-67
2024/04/22 00:50:12;;;;;;;8.10;6.90;;;4.40;99.90;;;;;;5455334;26;20300;-68
2024/04/22 00:52:41;;;;;;;7.73;6.87;;;4.40;99.90;;;;;;5452445;26;20322;-68
2024/04/22 00:55:12;;;;;;;9.87;7.03;;;4.30;99.90;;;;;;5458720;26;20284;-68
2024/04/22 00:57:43;;;;;;;10.97;7.00;;;4.30;99.90;;;;;;5446121;26;20269;-68
2024/04/22 01:00:14;;;;;;;9.87;7.23;;;4.30;99.90;;;;;;5453740;26;20267;-68
2024/04/22 01:02:42;;;;;;;9.57;7.43;;;4.20;99.90;;;;;;5448726;26;20751;-68
2024/04/22 01:05:12;;;;;;;10.00;7.20;;;4.20;99.90;;;;;;5454331;26;20312;-68
2024/04/22 01:07:40;;;;;;;12.50;7.77;;;4.10;99.90;;;;;;5453460;26;20360;-68
2024/04/22 01:10:10;;;;;;;9.50;7.50;;;4.10;99.90;;;;;;5436736;26;20261;-68
2024/04/22 01:12:40;;;;;;;10.03;7.70;;;4.20;99.90;;;;;;5447774;26;20314;-68
2024/04/22 01:15:11;;;;;;;10.73;7.60;;;4.10;99.90;;;;;;5451454;26;20245;-68
2024/04/22 01:17:42;;;;;;;11.50;7.37;;;4.10;99.90;;;;;;5449282;26;20325;-68
2024/04/22 01:20:11;;;;;;;8.57;7.53;;;4.10;99.90;;;;;;5452532;26;20312;-68
2024/04/22 01:22:44;;;;;;;9.63;7.23;;;4.10;99.90;;;;;;5448182;26;20275;-68
2024/04/22 01:25:15;;;;;;;10.47;7.73;;;4.00;99.90;;;;;;5435425;26;20301;-68
2024/04/22 01:27:46;;;;;;;10.80;7.23;;;4.00;99.90;;;;;;5454636;26;20340;-68
2024/04/22 01:30:14;;;;;;;10.47;8.03;;;4.00;99.90;;;;;;5450208;26;20249;-68
2024/04/22 01:32:44;;;;;;;9.27;7.80;;;4.00;99.90;;;;;;5444984;25;20288;-67
2024/04/22 01:35:12;;;;;;;12.03;8.27;;;4.00;99.90;;;;;;5454736;26;20307;-67
2024/04/22 01:37:45;;;;;;;11.93;8.37;;;4.10;99.90;;;;;;5456754;26;20957;-67
2024/04/22 01:40:15;;;;;;;9.67;8.03;;;4.20;99.90;;;;;;5456129;26;20714;-68
2024/04/22 01:42:43;;;;;;;8.93;7.93;;;4.20;99.90;;;;;;5448074;26;20295;-68
2024/04/22 01:45:13;;;;;;;11.97;8.70;;;4.30;99.90;;;;;;5472930;26;20800;-68
2024/04/22 01:47:41;;;;;;;11.30;7.87;;;4.40;99.90;;;;;;5446687;26;20257;-68
2024/04/22 01:50:13;;;;;;;9.43;8.07;;;4.40;99.90;;;;;;5453388;26;20252;-68
2024/04/22 01:52:43;;;;;;;9.67;7.67;;;4.40;99.90;;;;;;5450018;26;20233;-68
2024/04/22 01:55:13;;;;;;;10.00;7.97;;;4.40;99.90;;;;;;5458850;26;20237;-68
2024/04/22 01:57:41;;;;;;;9.93;8.43;;;4.50;99.90;;;;;;5444050;26;20787;-67
2024/04/22 02:00:11;;;;;;;9.50;7.97;;;4.50;99.90;;;;;;5453857;25;20286;-68
2024/04/22 02:02:39;;;;;;;10.33;8.23;;;4.50;99.90;;;;;;5449169;26;20367;-68
2024/04/22 02:05:09;;;;;;;10.90;8.60;;;4.60;99.90;;;;;;5452180;26;20307;-67
2024/04/22 02:07:36;;;;;;;8.63;7.67;;;4.60;99.90;;;;;;5454376;26;20236;-68
2024/04/22 02:10:09;;;;;;;9.83;7.93;;;4.60;99.90;;;;;;5453879;26;20283;-68
2024/04/22 02:12:50;;;;;;;10.13;7.80;;;4.60;99.90;;;;;;5452142;26;20341;-68
2024/04/22 02:15:20;;;;;;;11.60;8.60;;;4.60;99.90;;;;;;5449498;26;20249;-68
2024/04/22 02:17:47;;;;;;;10.50;8.00;;;4.70;99.90;;;;;;5445643;26;20316;-68
2024/04/22 02:20:18;;;;;;;9.43;7.87;;;4.70;99.90;;;;;;5444944;25;20252;-68
2024/04/22 02:22:45;;;;;;;9.13;8.03;;;4.60;99.90;;;;;;5451118;25;20267;-68
2024/04/22 02:25:18;;;;;;;11.37;8.23;;;4.60;99.90;;;;;;5447956;26;20729;-68
2024/04/22 02:27:46;;;;;;;10.57;8.13;;;4.60;99.90;;;;;;5458110;26;20692;-68
2024/04/22 02:30:16;;;;;;;10.90;8.03;;;4.60;99.90;;;;;;5448344;26;20669;-68
2024/04/22 02:32:43;;;;;;;12.07;8.57;;;4.60;99.90;;;;;;5456185;25;20532;-68
2024/04/22 02:35:13;;;;;;;10.47;7.70;;;4.60;99.90;;;;;;5448371;26;20260;-68
2024/04/22 02:37:41;;;;;;;10.83;8.33;;;4.50;99.90;;;;;;5454109;26;20341;-68
2024/04/22 02:40:12;;;;;;;10.20;8.13;;;4.50;99.90;;;;;;5451128;26;20276;-68
2024/04/22 02:42:42;;;;;;;9.10;8.20;;;4.50;99.90;;;;;;5454857;26;20256;-68
2024/04/22 02:45:13;;;;;;;11.13;8.43;;;4.50;99.90;;;;;;5456390;25;20252;-68
2024/04/22 02:47:40;;;;;;;10.23;7.93;;;4.50;99.90;;;;;;5465661;26;20259;-68
2024/04/22 02:50:10;;;;;;;11.37;8.07;;;4.50;99.90;;;;;;5446733;26;20280;-68
2024/04/22 02:52:38;;;;;;;9.70;8.33;;;4.50;99.90;;;;;;5449345;26;20288;-68
2024/04/22 02:55:08;;;;;;;13.00;8.00;;;4.50;99.90;;;;;;5464564;25;20275;-68
2024/04/22 02:57:36;;;;;;;11.03;8.27;;;4.50;99.90;;;;;;5459173;26;20288;-68
2024/04/22 03:00:10;;;;;;;11.20;8.00;;;4.50;99.90;;;;;;5457394;26;20290;-68
2024/04/22 03:02:38;;;;;;;11.20;8.13;;;4.50;99.90;;;;;;5435147;26;20264;-68
2024/04/22 03:05:08;;;;;;;10.30;7.10;;;4.50;99.90;;;;;;5458255;26;20257;-68
2024/04/22 03:07:36;;;;;;;11.70;8.47;;;4.50;99.90;;;;;;5454343;26;20237;-68
2024/04/22 03:10:06;;;;;;;9.57;7.87;;;4.50;99.90;;;;;;5447706;26;20283;-68
2024/04/22 03:12:34;;;;;;;9.43;7.30;;;4.50;99.90;;;;;;5446184;26;20249;-68
2024/04/22 03:15:05;;;;;;;8.77;6.93;;;4.40;99.90;;;;;;5457446;25;20289;-68
2024/04/22 03:17:36;;;;;;;8.40;7.50;;;4.40;99.90;;;;;;5451254;26;20299;-68
2024/04/22 03:20:07;;;;;;;8.73;7.83;;;4.40;99.90;;;;;;5442264;26;20855;-68
2024/04/22 03:22:36;;;;;;;11.90;7.97;;;4.40;99.90;;;;;;5449557;26;21063;-68
2024/04/22 03:25:06;;;;;;;9.90;7.53;;;4.30;99.90;;;;;;5445199;26;20256;-68
2024/04/22 03:27:34;;;;;;;12.17;7.97;;;4.20;99.90;;;;;;5448919;26;20265;-68
2024/04/22 03:30:05;;;;;;;11.80;8.07;;;4.10;99.90;;;;;;5448969;26;20262;-69
2024/04/22 03:32:35;;;;;;;9.63;7.80;;;4.10;99.90;;;;;;5460087;26;20287;-68
2024/04/22 03:35:06;;;;;;;8.73;7.83;;;4.00;99.90;;;;;;5462129;26;20348;-68
2024/04/22 03:37:38;;;;;;;9.37;7.40;;;3.90;99.90;;;;;;5452421;26;20761;-69
2024/04/22 03:40:10;;;;;;;10.13;7.47;;;3.90;99.90;;;;;;5452979;26;20276;-68
2024/04/22 03:42:40;;;;;;;11.80;9.00;;;3.80;99.90;;;;;;5458101;26;20249;-69
2024/04/22 03:45:09;;;;;;;14.43;8.40;;;3.80;99.90;;;;;;5452092;26;20356;-68
2024/04/22 03:50:28;;;;;;;9.73;8.30;;;3.70;99.90;;;;;;5450966;26;20361;-69
2024/04/22 03:53:00;;;;;;;13.10;8.10;;;3.60;99.90;;;;;;5443477;26;20241;-69
2024/04/22 03:55:30;;;;;;;11.00;9.03;;;3.60;99.90;;;;;;5448608;26;20237;-69
2024/04/22 03:58:00;;;;;;;13.57;9.57;;;3.60;99.90;;;;;;5448057;26;20653;-69
2024/04/22 04:00:30;;;;;;;13.97;9.40;;;3.60;99.90;;;;;;5452719;25;20253;-69
2024/04/22 04:03:01;;;;;;;14.00;9.50;;;3.50;99.90;;;;;;5438368;26;20781;-69
2024/04/22 04:05:31;;;;;;;11.63;8.90;;;3.50;99.90;;;;;;5459016;26;20300;-69
2024/04/22 04:07:58;;;;;;;14.97;9.50;;;3.40;99.90;;;;;;5450165;26;20241;-68
2024/04/22 04:10:29;;;;;;;13.87;9.77;;;3.40;99.90;;;;;;5450354;26;20245;-68
2024/04/22 04:12:56;;;;;;;15.20;9.97;;;3.40;99.90;;;;;;5441360;26;20250;-69
2024/04/22 04:15:29;;;;;;;13.47;9.63;;;3.40;99.90;;;;;;5452360;26;20275;-69
2024/04/22 04:17:56;;;;;;;13.27;9.83;;;3.30;99.90;;;;;;5446125;26;20636;-69
2024/04/22 04:20:29;;;;;;;13.03;9.20;;;3.30;99.90;;;;;;5452592;26;20299;-69
2024/04/22 04:22:56;;;;;;;14.13;9.30;;;3.30;99.90;;;;;;5451937;26;20237;-68
2024/04/22 04:25:27;;;;;;;15.30;10.30;;;3.30;99.90;;;;;;5451486;26;20291;-69
2024/04/22 04:27:54;;;;;;;16.77;11.17;;;3.20;99.90;;;;;;5453908;26;20258;-69
2024/04/22 04:30:24;;;;;;;14.93;9.73;;;3.20;99.90;;;;;;5459259;26;20774;-69
2024/04/22 04:32:57;;;;;;;14.27;10.70;;;3.20;99.90;;;;;;5455511;26;20249;-68
2024/04/22 04:35:30;;;;;;;17.10;10.67;;;3.20;99.90;;;;;;5452712;26;20747;-69
2024/04/22 04:37:58;;;;;;;15.00;10.47;;;3.10;99.90;;;;;;5452772;26;20330;-69
2024/04/22 04:40:28;;;;;;;15.40;10.67;;;3.10;99.90;;;;;;5456577;26;20720;-69
2024/04/22 04:42:55;;;;;;;16.30;11.10;;;3.10;99.90;;;;;;5452486;25;20256;-69
2024/04/22 04:45:26;;;;;;;19.00;11.93;;;3.10;99.90;;;;;;5457123;26;20327;-69
2024/04/22 04:47:54;;;;;;;19.23;11.83;;;3.10;99.90;;;;;;5450088;26;20295;-69
2024/04/22 04:50:24;;;;;;;24.57;12.67;;;3.10;99.90;;;;;;5449813;25;20797;-69
2024/04/22 04:52:55;;;;;;;23.60;12.77;;;3.20;99.90;;;;;;5461000;26;20234;-68
2024/04/22 04:55:25;;;;;;;20.90;12.03;;;3.20;99.90;;;;;;5457580;26;20272;-69
2024/04/22 04:57:52;;;;;;;20.20;12.43;;;3.30;99.90;;;;;;5456335;26;20249;-69
2024/04/22 05:00:23;;;;;;;19.03;12.53;;;3.30;99.90;;;;;;5455471;26;20328;-69
2024/04/22 05:02:50;;;;;;;18.20;12.73;;;3.30;99.90;;;;;;5444928;26;20269;-69
2024/04/22 05:05:20;;;;;;;22.63;12.77;;;3.40;99.90;;;;;;5452409;25;20341;-69
2024/04/22 05:07:48;;;;;;;17.97;12.20;;;3.40;99.90;;;;;;5449172;26;21509;-65
2024/04/22 05:10:21;;;;;;;21.80;12.37;;;3.40;99.90;;;;;;5453436;26;20229;-69
2024/04/22 05:12:49;;;;;;;18.63;12.40;;;3.40;99.90;;;;;;5445548;26;21005;-68
2024/04/22 05:15:23;;;;;;;19.73;12.63;;;3.50;99.90;;;;;;5448555;26;20624;-69
2024/04/22 05:17:51;;;;;;;19.70;13.00;;;3.50;99.90;;;;;;5446097;25;20261;-69
2024/04/22 05:20:21;;;;;;;17.27;11.90;;;3.50;99.90;;;;;;5446720;25;20329;-69
2024/04/22 05:22:49;;;;;;;18.27;12.10;;;3.50;99.90;;;;;;5450317;26;20272;-68
2024/04/22 05:25:22;;;;;;;23.57;12.33;;;3.60;99.90;;;;;;5456869;26;20241;-69
2024/04/22 05:27:49;;;;;;;19.43;12.03;;;3.60;99.90;;;;;;5457598;26;20260;-69
2024/04/22 05:30:19;;;;;;;24.13;11.60;;;3.70;99.90;;;;;;5451675;26;20334;-69
2024/04/22 05:32:47;;;;;;;17.60;11.47;;;3.70;99.90;;;;;;5461827;26;20256;-69
2024/04/22 05:38:04;;;;;;;17.40;11.47;;;3.90;99.90;;;;;;5450620;26;20263;-68
2024/04/22 05:40:35;;;;;;;15.47;10.90;;;4.00;99.90;;;;;;5458999;26;20240;-68
2024/04/22 05:43:05;;;;;;;17.30;11.43;;;4.00;99.90;;;;;;5447148;26;20252;-69
2024/04/22 05:45:35;;;;;;;15.87;11.53;;;4.10;99.90;;;;;;5442899;26;20249;-68
2024/04/22 05:48:03;;;;;;;18.20;12.13;;;4.10;99.90;;;;;;5446460;26;20295;-68
2024/04/22 05:50:33;;;;;;;16.43;11.23;;;4.10;99.90;;;;;;5449546;25;20686;-68
2024/04/22 05:53:03;;;;;;;20.50;12.00;;;4.10;99.90;;;;;;5449146;26;20241;-69
2024/04/22 05:55:31;;;;;;;20.20;12.03;;;4.20;99.90;;;;;;5454577;26;20237;-69
2024/04/22 05:58:04;;;;;;;15.53;11.07;;;4.20;99.90;;;;;;5455883;26;20647;-69
2024/04/22 06:00:31;;;;;;;16.03;10.57;;;4.20;99.90;;;;;;5444607;26;20260;-68
2024/04/22 06:03:01;;;;;;;16.63;11.17;;;4.20;99.90;;;;;;5436544;26;20593;-69
2024/04/22 06:05:31;;;;;;;16.07;10.80;;;4.30;99.90;;;;;;5438085;26;20253;-69
2024/04/22 06:08:01;;;;;;;16.37;10.33;;;4.40;99.90;;;;;;5438198;26;20569;-68
2024/04/22 06:10:30;;;;;;;16.07;10.30;;;4.40;99.90;;;;;;5448342;26;20276;-69
2024/04/22 06:13:01;;;;;;;12.03;9.57;;;4.50;99.90;;;;;;5448137;26;20252;-69
2024/04/22 06:15:31;;;;;;;16.47;10.10;;;4.60;99.90;;;;;;5456234;26;20313;-69
2024/04/22 06:18:01;;;;;;;13.63;9.70;;;4.70;99.90;;;;;;5455367;26;20268;-68
2024/04/22 06:20:29;;;;;;;15.20;10.17;;;4.90;99.90;;;;;;5454767;25;20921;-68
2024/04/22 06:22:58;;;;;;;12.77;9.50;;;5.10;99.90;;;;;;5449930;26;20271;-68
2024/04/22 06:25:26;;;;;;;14.07;9.40;;;5.30;99.90;;;;;;5458823;26;20245;-68
2024/04/22 06:27:56;;;;;;;14.67;9.87;;;5.50;99.90;;;;;;5448811;26;20248;-68
2024/04/22 06:30:23;;;;;;;16.00;9.10;;;5.70;99.90;;;;;;5448947;26;20296;-68
2024/04/22 06:32:56;;;;;;;13.60;8.50;;;5.90;99.90;;;;;;5451765;25;20246;-68
2024/04/22 06:35:24;;;;;;;10.60;8.37;;;6.10;99.90;;;;;;5454574;26;20303;-68
2024/04/22 06:37:54;;;;;;;10.77;8.50;;;6.30;99.90;;;;;;5449142;26;20619;-68
2024/04/22 06:40:21;;;;;;;11.23;8.53;;;6.50;99.90;;;;;;5484485;26;20324;-68
2024/04/22 06:42:51;;;;;;;9.83;8.13;;;6.70;99.90;;;;;;5456358;26;20359;-68
2024/04/22 06:45:19;;;;;;;14.70;8.93;;;6.80;99.90;;;;;;5452652;25;20261;-68
2024/04/22 06:47:50;;;;;;;12.67;8.07;;;7.00;99.90;;;;;;5461448;25;20316;-68
2024/04/22 06:50:20;;;;;;;8.73;7.30;;;7.10;99.90;;;;;;5453737;25;20352;-68
2024/04/22 06:52:50;;;;;;;8.43;7.00;;;7.30;99.90;;;;;;5454722;26;20772;-67
2024/04/22 06:55:17;;;;;;;8.60;7.70;;;7.30;99.90;;;;;;5450888;26;20337;-68
2024/04/22 06:57:48;;;;;;;11.47;8.17;;;7.40;99.90;;;;;;5458606;26;20723;-68
2024/04/22 07:00:16;;;;;;;10.50;7.90;;;7.50;99.90;;;;;;5454793;26;20248;-68
2024/04/22 07:02:46;;;;;;;10.23;7.30;;;7.60;99.90;;;;;;5451172;26;20315;-68
2024/04/22 07:05:14;;;;;;;10.07;7.20;;;7.60;99.90;;;;;;5445653;26;20327;-68
2024/04/22 07:07:47;;;;;;;11.23;7.27;;;7.70;99.90;;;;;;5439095;26;20248;-68
2024/04/22 07:10:15;;;;;;;9.47;7.03;;;7.80;99.90;;;;;;5480010;26;20245;-69
2024/04/22 07:12:45;;;;;;;8.83;6.73;;;7.80;99.90;;;;;;5446726;26;20655;-68
2024/04/22 07:15:13;;;;;;;9.93;6.57;;;7.80;99.90;;;;;;5452033;25;20292;-68
2024/04/22 07:17:43;;;;;;;7.50;6.80;;;7.80;99.90;;;;;;5448603;26;20270;-68
2024/04/22 07:20:11;;;;;;;10.97;6.57;;;7.90;99.90;;;;;;5460717;26;20264;-68
2024/04/22 07:22:43;;;;;;;8.83;6.60;;;8.00;99.90;;;;;;5449869;26;20233;-69
2024/04/22 07:25:17;;;;;;;7.57;6.40;;;8.20;99.90;;;;;;5447651;26;20240;-69
2024/04/22 07:27:48;;;;;;;6.37;5.83;;;8.30;99.90;;;;;;5448191;26;20716;-69
2024/04/22 07:30:20;;;;;;;7.83;5.97;;;8.50;99.90;;;;;;5451377;26;20276;-69
2024/04/22 07:32:51;;;;;;;10.63;5.93;;;8.70;99.90;;;;;;5460353;26;20287;-69
2024/04/22 07:35:19;;;;;;;10.90;5.93;;;8.90;99.90;;;;;;5457924;26;20695;-68
2024/04/22 07:37:50;;;;;;;8.90;5.93;;;9.00;99.90;;;;;;5467144;26;20337;-69
2024/04/22 07:40:22;;;;;;;6.07;5.43;;;9.10;99.90;;;;;;5446772;26;20258;-69
2024/04/22 07:42:52;;;;;;;7.50;5.77;;;9.00;99.90;;;;;;5450922;25;20304;-69
2024/04/22 07:45:20;;;;;;;5.77;5.07;;;9.00;99.90;;;;;;5458534;26;20280;-69
2024/04/22 07:47:55;;;;;;;6.97;5.70;;;9.20;99.90;;;;;;5457392;26;20276;-69
2024/04/22 07:50:22;;;;;;;8.30;5.70;;;9.30;99.90;;;;;;5458098;26;20278;-69
2024/04/22 07:52:53;;;;;;;6.77;5.00;;;9.50;99.90;;;;;;5449390;26;20280;-68
2024/04/22 07:55:25;;;;;;;7.37;5.20;;;9.60;99.90;;;;;;5457529;26;20281;-69
2024/04/22 07:57:56;;;;;;;9.40;5.10;;;9.80;99.90;;;;;;5451303;26;20291;-69
2024/04/22 08:00:24;;;;;;;4.80;4.37;;;9.80;88.30;;;;;;5452935;26;20620;-69
2024/04/22 08:02:55;;;;;;;5.50;4.80;;;10.00;1.00;;;;;;5456434;26;20260;-69
2024/04/22 08:05:23;;;;;;;7.53;4.40;;;10.10;1.00;;;;;;5462894;26;20248;-69
2024/04/22 08:07:59;;;;;;;8.13;4.90;;;10.10;1.00;;;;;;5458462;26;20297;-68
2024/04/22 08:10:29;;;;;;;6.80;4.90;;;10.20;1.00;;;;;;5446579;26;20237;-69
2024/04/22 08:13:00;;;;;;;6.23;3.83;;;10.30;1.00;;;;;;5460367;26;20255;-69
2024/04/22 08:15:27;;;;;;;6.30;3.87;;;10.40;1.00;;;;;;5446395;26;20291;-69
2024/04/22 08:17:57;;;;;;;8.43;4.10;;;10.40;1.00;;;;;;5454031;25;20252;-69
2024/04/22 08:20:25;;;;;;;7.30;3.60;;;10.60;1.00;;;;;;5450732;26;20264;-69
2024/04/22 08:22:59;;;;;;;6.17;3.73;;;10.70;1.00;;;;;;5457384;25;20232;-69
2024/04/22 08:25:30;;;;;;;6.90;3.90;;;10.80;99.90;;;;;;5450415;26;20293;-69
2024/04/22 08:28:00;;;;;;;5.17;3.57;;;10.80;99.90;;;;;;5457587;25;20364;-69
2024/04/22 08:30:28;;;;;;;8.20;3.77;;;10.90;12.30;;;;;;5459384;25;20283;-69
2024/04/22 08:32:59;;;;;;;6.43;3.90;;;11.00;1.00;;;;;;5460957;26;20287;-69
2024/04/22 08:35:27;;;;;;;5.17;3.30;;;11.20;1.00;;;;;;5448162;26;20261;-69
2024/04/22 08:37:57;;;;;;;4.30;2.97;;;11.20;1.00;;;;;;5457609;26;20271;-68
2024/04/22 08:40:27;;;;;;;5.43;2.80;;;11.40;59.20;;;;;;5457511;26;20263;-69
2024/04/22 08:43:00;;;;;;;4.53;3.27;;;11.60;1.00;;;;;;5454907;26;20280;-69
2024/04/22 08:45:30;;;;;;;8.60;3.17;;;11.70;1.00;;;;;;5461372;25;20261;-69
2024/04/22 08:48:02;;;;;;;10.17;3.80;;;11.70;1.00;;;;;;5454718;26;20313;-69
2024/04/22 08:50:30;;;;;;;7.10;3.37;;;11.70;1.00;;;;;;5463059;26;20267;-69
2024/04/22 08:53:04;;;;;;;7.13;3.17;;;11.70;99.90;;;;;;5459049;26;20236;-69
2024/04/22 08:55:32;;;;;;;7.10;3.30;;;11.80;1.00;;;;;;5459053;26;20237;-69
2024/04/22 08:58:07;;;;;;;3.60;2.97;;;11.80;99.90;;;;;;5454719;26;20261;-69
2024/04/22 09:00:34;;;;;;;3.47;2.73;;;11.90;99.90;;;;;;5445765;26;20264;-69
2024/04/22 09:03:06;;;;;;;4.73;2.87;;;11.70;1.00;;;;;;5453671;26;20354;-69
2024/04/22 09:05:35;;;;;;;7.10;3.13;;;11.90;1.00;;;;;;5449300;25;20265;-69
2024/04/22 09:08:08;;;;;;;7.00;2.67;;;12.00;99.90;;;;;;5454340;25;20347;-69
2024/04/22 09:10:37;;;;;;;5.03;2.50;;;12.20;1.00;;;;;;5450877;26;20233;-69
2024/04/22 09:13:29;;;;;;;7.53;2.10;;;12.50;83.80;;;;;;5453042;26;20242;-69
2024/04/22 09:15:58;;;;;;;10.60;2.20;;;12.70;99.90;;;;;;5454583;26;20318;-67
2024/04/22 09:18:28;;;;;;;3.90;2.10;;;13.20;1.00;;;;;;5448286;26;20769;-67
2024/04/22 09:21:06;;;;;;;3.83;2.17;;;13.30;1.00;;;;;;5454414;26;20257;-69
2024/04/22 09:23:38;;;;;;;3.13;2.00;;;13.30;1.00;;;;;;5444391;26;20291;-68
2024/04/22 09:26:06;;;;;;;3.03;1.80;;;13.30;1.00;;;;;;5452657;26;20255;-68
2024/04/22 09:28:44;;;;;;;5.87;1.87;;;13.30;1.00;;;;;;5452893;26;20246;-68
2024/04/22 09:31:16;;;;;;;4.23;1.83;;;12.90;1.00;;;;;;5485274;26;20248;-68
2024/04/22 09:33:47;;;;;;;3.10;2.00;;;12.70;1.00;;;;;;5458006;26;20303;-68
2024/04/22 09:36:16;;;;;;;3.43;1.90;;;12.60;99.90;;;;;;5462223;26;20318;-68
2024/04/22 09:38:47;;;;;;;4.53;1.97;;;12.80;99.90;;;;;;5452002;26;20343;-68
2024/04/22 09:41:18;;;;;;;2.33;1.60;;;13.40;1.00;;;;;;5450494;26;20258;-68
2024/04/22 09:43:55;;;;;;;3.47;1.70;;;14.20;1.00;;;;;;5462245;25;20279;-68
2024/04/22 09:46:37;;;;;;;3.70;1.77;;;14.60;1.00;;;;;;5457782;26;20328;-68
2024/04/22 09:49:09;;;;;;;2.53;1.87;;;14.60;1.00;;;;;;5456240;26;20255;-68
2024/04/22 09:51:38;;;;;;;5.20;2.00;;;14.30;1.00;;;;;;5438981;26;20248;-68
2024/04/22 09:54:09;;;;;;;4.03;1.67;;;14.50;1.00;;;;;;5449672;26;21084;-68
2024/04/22 09:56:38;;;;;;;7.23;2.20;;;14.90;1.00;;;;;;5454729;26;20737;-68
2024/04/22 09:59:19;;;;;;;2.77;1.70;;;15.50;1.00;;;;;;5456253;25;20261;-68
2024/04/22 10:01:46;;;;;;;3.50;1.87;;;16.00;99.90;;;;;;5459407;25;20979;-68
2024/04/22 10:04:17;;;;;;;3.27;1.90;;;15.90;99.90;;;;;;5451518;26;20289;-68
2024/04/22 10:06:45;;;;;;;3.13;1.70;;;15.50;99.90;;;;;;5455002;25;20324;-68
2024/04/22 10:09:18;;;;;;;2.33;1.80;;;14.80;99.90;;;;;;5444390;25;20624;-68
2024/04/22 10:11:46;;;;;;;4.07;1.83;;;14.10;99.90;;;;;;5459442;25;20254;-68
2024/04/22 10:14:22;;;;;;;1.93;1.60;;;13.50;1.00;;;;;;5436377;26;20312;-68
2024/04/22 10:16:53;;;;;;;2.50;1.77;;;13.30;1.00;;;;;;5449895;25;20236;-67
2024/04/22 10:19:23;;;;;;;4.10;2.00;;;13.20;1.00;;;;;;5451046;26;20286;-67
2024/04/22 10:21:51;;;;;;;4.30;1.60;;;13.00;1.00;;;;;;5445928;26;20297;-68
2024/04/22 10:24:32;;;;;;;3.00;1.90;;;13.00;1.00;;;;;;5446938;25;20251;-68
2024/04/22 10:27:04;;;;;;;4.50;1.60;;;13.80;1.00;;;;;;5453561;25;20348;-68
2024/04/22 10:29:42;;;;;;;3.60;1.83;;;14.30;99.90;;;;;;5446752;26;20836;-68
2024/04/22 10:32:12;;;;;;;4.00;2.33;;;14.00;99.90;;;;;;5455304;25;20379;-68
2024/04/22 10:34:43;;;;;;;2.23;1.70;;;13.70;1.00;;;;;;5447190;26;20242;-68
2024/04/22 10:37:15;;;;;;;3.17;1.70;;;13.40;1.00;;;;;;5451626;26;20242;-68
2024/04/22 10:39:43;;;;;;;2.77;1.90;;;13.40;99.90;;;;;;5462088;26;20348;-68
2024/04/22 10:42:14;;;;;;;2.57;2.10;;;12.60;99.90;;;;;;5453525;26;20361;-67
2024/04/22 10:44:45;;;;;;;2.87;2.00;;;13.10;1.00;;;;;;5447395;26;20294;-68
2024/04/22 10:47:16;;;;;;;5.83;1.90;;;14.60;99.90;;;;;;5453099;26;20302;-67
2024/04/22 10:49:46;;;;;;;2.53;1.70;;;15.20;99.90;;;;;;5449518;26;20232;-67
2024/04/22 10:52:16;;;;;;;6.00;1.93;;;15.20;99.90;;;;;;5460917;26;20265;-68
2024/04/22 10:54:44;;;;;;;3.27;2.13;;;14.90;99.90;;;;;;5452456;26;20255;-68
2024/04/22 10:57:21;;;;;;;4.17;1.87;;;14.70;99.90;;;;;;5449160;26;20255;-68
2024/04/22 10:59:51;;;;;;;3.87;2.20;;;14.50;99.90;;;;;;5440898;26;20249;-68
2024/04/22 11:02:22;;;;;;;3.73;2.63;;;14.30;99.90;;;;;;5448110;26;20634;-67
2024/04/22 11:04:50;;;;;;;1.67;1.57;;;14.60;99.90;;;;;;5446402;26;21057;-67
2024/04/22 11:07:22;;;;;;;1.60;1.50;;;15.50;99.90;;;;;;5449974;26;20245;-68
2024/04/22 11:09:51;;;;;;;4.13;1.80;;;16.50;99.90;;;;;;5453258;26;20318;-68
2024/04/22 11:12:21;;;;;;;3.33;1.70;;;17.60;99.90;;;;;;5447257;26;20338;-68
2024/04/22 11:14:56;;;;;;;4.43;1.83;;;18.20;99.90;;;;;;5452735;26;20248;-67
2024/04/22 11:17:27;;;;;;;5.67;2.00;;;18.70;99.90;;;;;;5454265;26;20302;-67
2024/04/22 11:20:05;;;;;;;2.97;2.00;;;19.00;99.90;;;;;;5461382;25;20271;-67
2024/04/22 11:22:37;;;;;;;6.37;1.70;;;18.10;99.90;;;;;;5450138;26;20338;-67
2024/04/22 11:25:06;;;;;;;4.97;1.87;;;18.60;99.90;;;;;;5450314;26;20254;-68
2024/04/22 11:27:37;;;;;;;3.03;2.00;;;18.50;99.90;;;;;;5455457;26;20261;-67
2024/04/22 11:30:08;;;;;;;1.80;1.70;;;17.50;99.90;;;;;;5450022;26;20295;-67
2024/04/22 11:32:38;;;;;;;4.30;1.83;;;16.60;99.90;;;;;;5460011;26;20872;-67
2024/04/22 11:35:08;;;;;;;2.50;1.60;;;15.90;99.90;;;;;;5459547;26;20266;-68
2024/04/22 11:37:38;;;;;;;3.00;1.80;;;15.30;99.90;;;;;;5465992;26;20243;-68
2024/04/22 11:40:08;;;;;;;2.37;1.93;;;14.70;99.90;;;;;;5458024;26;20249;-68
2024/04/22 11:42:39;;;;;;;3.90;1.90;;;14.50;99.90;;;;;;5458645;26;20335;-68
2024/04/22 11:45:11;;;;;;;2.47;1.60;;;15.90;99.90;;;;;;5457293;25;20291;-68
2024/04/22 11:47:42;;;;;;;1.50;1.40;;;17.30;99.90;;;;;;5460985;26;20263;-68
2024/04/22 11:50:09;;;;;;;2.17;1.60;;;18.90;99.90;;;;;;5455257;26;20305;-67
2024/04/22 11:52:40;;;;;;;2.57;1.50;;;20.10;99.90;;;;;;5465747;26;20271;-68
2024/04/22 11:55:08;;;;;;;1.60;1.50;;;19.70;99.90;;;;;;5465421;26;20578;-67
2024/04/22 11:57:40;;;;;;;2.80;1.70;;;18.80;99.90;;;;;;5454135;26;20249;-67
2024/04/22 12:00:12;;;;;;;1.90;1.70;;;19.30;99.90;;;;;;5460769;26;20300;-67
2024/04/22 12:02:42;;;;;;;5.07;1.80;;;19.80;99.90;;;;;;5456629;26;20256;-67
2024/04/22 12:05:13;;;;;;;5.30;1.60;;;19.70;99.90;;;;;;5458937;26;20291;-67
2024/04/22 12:07:44;;;;;;;4.57;1.73;;;20.20;99.90;;;;;;5447747;26;20252;-67
2024/04/22 12:10:12;;;;;;;2.37;1.50;;;20.30;99.90;;;;;;5464849;26;20799;-67
2024/04/22 12:12:42;;;;;;;2.27;1.40;;;19.10;99.90;;;;;;5455569;25;20292;-67
2024/04/22 12:15:13;;;;;;;1.87;1.40;;;19.30;99.90;;;;;;5469194;26;20261;-67
2024/04/22 12:17:43;;;;;;;2.83;1.40;;;19.60;98.30;;;;;;5462086;25;20272;-67
2024/04/22 12:20:12;;;;;;;2.33;1.40;;;19.40;98.50;;;;;;5455507;26;20721;-67
2024/04/22 12:22:42;;;;;;;1.60;1.37;;;19.50;99.90;;;;;;5449777;26;20262;-67
2024/04/22 12:25:09;;;;;;;1.40;1.40;;;19.80;99.90;;;;;;5457751;26;20735;-67
2024/04/22 12:27:40;;;;;;;1.57;1.50;;;20.20;97.30;;;;;;5461296;26;20253;-67
2024/04/22 12:30:09;;;;;;;3.33;1.70;;;20.00;95.20;;;;;;5459453;26;20315;-67
2024/04/22 12:32:42;;;;;;;5.57;1.60;;;19.40;91.70;;;;;;5472093;26;20333;-66
2024/04/22 12:35:09;;;;;;;2.40;1.37;;;19.40;99.90;;;;;;5454136;26;20368;-66
2024/04/22 12:37:40;;;;;;;1.50;1.40;;;19.30;90.60;;;;;;5459204;26;20317;-67
2024/04/22 12:40:09;;;;;;;1.33;1.33;;;19.40;94.80;;;;;;5463198;26;20244;-67
2024/04/22 12:42:39;;;;;;;1.40;1.30;;;19.40;93.50;;;;;;5461720;26;20261;-67
2024/04/22 12:45:06;;;;;;;2.00;1.30;;;19.40;93.30;;;;;;5464766;26;20261;-67
2024/04/22 12:53:12;;;;;;;2.83;1.70;;;19.10;94.00;;;;;;5456249;26;20256;-66
2024/04/22 12:55:43;;;;;;;3.83;2.20;;;18.20;98.50;;;;;;5463282;26;20287;-67
2024/04/22 12:58:14;;;;;;;4.23;2.03;;;17.40;99.90;;;;;;5467539;26;20669;-67
2024/04/22 13:00:42;;;;;;;4.20;2.40;;;16.50;99.90;;;;;;5463257;26;20275;-67
2024/04/22 13:03:12;;;;;;;3.43;2.30;;;16.10;99.90;;;;;;5453640;26;20306;-67
2024/04/22 13:05:45;;;;;;;3.07;2.10;;;15.80;1.00;;;;;;5455668;26;20258;-67
2024/04/22 13:08:15;;;;;;;3.53;2.03;;;15.60;1.00;;;;;;5450421;26;20258;-67
2024/04/22 13:10:45;;;;;;;2.37;1.90;;;15.80;1.00;;;;;;5453079;25;20285;-66
2024/04/22 13:13:16;;;;;;;2.90;2.10;;;16.00;1.00;;;;;;5461736;26;20854;-67
2024/04/22 13:15:50;;;;;;;5.93;2.20;;;16.30;1.00;;;;;;5455206;26;20250;-67